createdAt,value
2023-03-30T00:02:24.819Z,-5.86
2023-03-30T00:04:54.234Z,-5.90
2023-03-30T00:07:22.118Z,-6.55
2023-03-30T00:09:50.547Z,-5.95
2023-03-30T00:12:20.721Z,-5.99
2023-03-30T00:14:49.017Z,-6.36
2023-03-30T00:17:17.731Z,-6.88
2023-03-30T00:19:46.026Z,-6.07
2023-03-30T00:22:15.486Z,-6.09
2023-03-30T00:24:43.690Z,-6.98
2023-03-30T00:27:11.735Z,-6.51
2023-03-30T00:29:39.632Z,-6.10
2023-03-30T00:32:07.973Z,-6.13
2023-03-30T00:34:36.565Z,-6.15
2023-03-30T00:37:07.095Z,-6.16
2023-03-30T00:39:36.807Z,-6.15
2023-03-30T00:42:05.422Z,-6.16
2023-03-30T00:45:11.277Z,-6.36
2023-03-30T00:47:46.431Z,-6.20
2023-03-30T00:50:15.426Z,-6.38
2023-03-30T00:52:46.696Z,-6.58
2023-03-30T00:55:19.870Z,-6.28
2023-03-30T00:57:51.304Z,-6.67
2023-03-30T01:00:20.517Z,-6.89
2023-03-30T01:02:56.919Z,-6.37
2023-03-30T01:05:25.937Z,-6.37
2023-03-30T01:07:54.186Z,-6.36
2023-03-30T01:10:25.676Z,-6.37
2023-03-30T01:12:55.527Z,-6.58
2023-03-30T01:15:25.438Z,-7.62
2023-03-30T01:18:13.540Z,-6.46
2023-03-30T01:21:04.440Z,-6.49
2023-03-30T01:24:09.959Z,-6.49
2023-03-30T01:26:55.517Z,-6.50
2023-03-30T01:30:03.471Z,-6.65
2023-03-30T01:33:11.302Z,-6.84
2023-03-30T01:35:59.845Z,-7.07
2023-03-30T01:39:10.556Z,-6.76
2023-03-30T01:41:48.374Z,-7.06
2023-03-30T01:44:25.362Z,-6.60
2023-03-30T01:46:59.972Z,-7.54
2023-03-30T01:49:33.132Z,-7.52
2023-03-30T01:52:07.755Z,-6.81
2023-03-30T01:54:40.565Z,-6.52
2023-03-30T01:57:16.590Z,-6.50
2023-03-30T01:59:50.790Z,-6.50
2023-03-30T02:02:22.290Z,-6.74
2023-03-30T02:04:55.681Z,-6.46
2023-03-30T02:07:28.396Z,-6.42
2023-03-30T02:10:02.489Z,-6.38
2023-03-30T02:12:33.747Z,-6.37
2023-03-30T02:15:04.812Z,-6.89
2023-03-30T02:17:33.978Z,-6.33
2023-03-30T02:20:02.296Z,-6.55
2023-03-30T02:22:32.644Z,-6.24
2023-03-30T02:25:01.411Z,-6.38
2023-03-30T02:27:32.059Z,-6.18
2023-03-30T02:30:00.217Z,-7.78
2023-03-30T02:32:33.497Z,-6.18
2023-03-30T02:35:24.963Z,-6.18
2023-03-30T02:38:17.353Z,-6.21
2023-03-30T02:40:56.306Z,-6.22
2023-03-30T02:43:40.716Z,-6.23
2023-03-30T02:46:25.272Z,-6.23
2023-03-30T02:49:02.761Z,-6.23
2023-03-30T02:51:42.523Z,-6.28
2023-03-30T02:54:24.514Z,-6.31
2023-03-30T02:57:03.688Z,-6.29
2023-03-30T02:59:38.825Z,-6.32
2023-03-30T03:02:15.393Z,-6.49
2023-03-30T03:04:46.446Z,-6.35
2023-03-30T03:07:15.523Z,-6.34
2023-03-30T03:09:44.788Z,-6.68
2023-03-30T03:12:12.827Z,-6.38
2023-03-30T03:14:43.236Z,-6.39
2023-03-30T03:17:14.103Z,-6.40
2023-03-30T03:19:42.686Z,-6.43
2023-03-30T03:22:11.276Z,-6.41
2023-03-30T03:24:40.818Z,-6.40
2023-03-30T03:27:09.004Z,-6.36
2023-03-30T03:29:40.809Z,-6.53
2023-03-30T03:32:10.176Z,-7.12
2023-03-30T03:34:39.820Z,-6.65
2023-03-30T03:37:07.658Z,-6.42
2023-03-30T03:39:37.798Z,-7.60
2023-03-30T03:42:06.532Z,-6.44
2023-03-30T03:44:34.688Z,-6.95
2023-03-30T03:47:03.233Z,-6.62
2023-03-30T03:49:32.509Z,-6.36
2023-03-30T03:52:00.606Z,-6.34
2023-03-30T03:54:29.041Z,-6.31
2023-03-30T03:56:57.509Z,-6.89
2023-03-30T03:59:25.838Z,-8.11
2023-03-30T04:01:54.115Z,-6.18
2023-03-30T04:04:22.213Z,-6.11
2023-03-30T04:06:54.081Z,-6.08
2023-03-30T04:09:23.498Z,-7.46
2023-03-30T04:11:51.781Z,-6.35
2023-03-30T04:14:19.825Z,-6.14
2023-03-30T04:16:49.354Z,-6.00
2023-03-30T04:19:17.818Z,-6.14
2023-03-30T04:21:47.100Z,-6.05
2023-03-30T04:24:18.490Z,-6.31
2023-03-30T04:26:49.035Z,-6.46
2023-03-30T04:29:17.947Z,-6.76
2023-03-30T04:31:51.294Z,-6.40
2023-03-30T04:34:22.054Z,-6.28
2023-03-30T04:36:50.110Z,-6.33
2023-03-30T04:39:21.083Z,-6.34
2023-03-30T04:41:50.800Z,-6.35
2023-03-30T04:44:20.576Z,-6.80
2023-03-30T04:46:49.187Z,-6.32
2023-03-30T04:49:17.328Z,-6.29
2023-03-30T04:51:46.555Z,-6.58
2023-03-30T04:54:16.354Z,-6.19
2023-03-30T04:56:46.135Z,-6.14
2023-03-30T04:59:16.629Z,-6.05
2023-03-30T05:01:45.577Z,-6.80
2023-03-30T05:04:17.598Z,-5.98
2023-03-30T05:06:45.840Z,-5.75
2023-03-30T05:09:14.852Z,-6.38
2023-03-30T05:11:43.240Z,-5.60
2023-03-30T05:14:13.029Z,-5.84
2023-03-30T05:16:41.629Z,-5.42
2023-03-30T05:19:09.874Z,-5.36
2023-03-30T05:21:37.810Z,-5.30
2023-03-30T05:24:06.674Z,-5.22
2023-03-30T05:26:35.105Z,-5.53
2023-03-30T05:29:03.168Z,-5.53
2023-03-30T05:31:32.831Z,-5.09
2023-03-30T05:34:00.988Z,-5.04
2023-03-30T05:36:28.849Z,-4.95
2023-03-30T05:38:58.426Z,-4.84
2023-03-30T05:41:28.129Z,-5.33
2023-03-30T05:43:56.167Z,-4.65
2023-03-30T05:46:24.715Z,-4.50
2023-03-30T05:48:54.598Z,-4.39
2023-03-30T05:51:22.547Z,-4.26
2023-03-30T05:53:50.469Z,-4.91
2023-03-30T05:56:18.376Z,-4.75
2023-03-30T05:58:46.434Z,-4.00
2023-03-30T06:01:19.249Z,-3.91
2023-03-30T06:03:47.838Z,-3.90
2023-03-30T06:06:19.235Z,-4.00
2023-03-30T06:08:47.319Z,-3.90
2023-03-30T06:11:17.563Z,-4.33
2023-03-30T06:13:45.590Z,-4.54
2023-03-30T06:16:13.534Z,-4.28
2023-03-30T06:18:43.241Z,-3.70
2023-03-30T06:21:11.920Z,-3.66
2023-03-30T06:23:42.690Z,-3.76
2023-03-30T06:26:11.532Z,-3.54
2023-03-30T06:28:39.531Z,-3.45
2023-03-30T06:31:12.025Z,-3.34
2023-03-30T06:33:41.892Z,-3.24
2023-03-30T06:36:13.442Z,-3.15
2023-03-30T06:38:43.803Z,-3.05
2023-03-30T06:41:12.877Z,-3.04
2023-03-30T06:43:41.230Z,-2.77
2023-03-30T06:46:11.437Z,-2.64
2023-03-30T06:48:42.065Z,-2.53
2023-03-30T06:51:10.507Z,-2.44
2023-03-30T06:53:39.869Z,-2.32
2023-03-30T06:56:10.624Z,-2.26
2023-03-30T06:58:39.046Z,-3.07
2023-03-30T07:01:11.639Z,-2.10
2023-03-30T07:03:41.264Z,-2.28
2023-03-30T07:06:10.567Z,-1.95
2023-03-30T07:08:38.895Z,-2.03
2023-03-30T07:11:09.399Z,-1.68
2023-03-30T07:13:37.939Z,-1.58
2023-03-30T07:16:08.097Z,-1.80
2023-03-30T07:18:36.248Z,-1.77
2023-03-30T07:21:04.823Z,-2.29
2023-03-30T07:23:33.494Z,-1.07
2023-03-30T07:26:01.590Z,-0.79
2023-03-30T07:28:30.883Z,-0.66
2023-03-30T07:31:07.147Z,-0.80
2023-03-30T07:33:38.233Z,-0.54
2023-03-30T07:36:07.457Z,-0.25
2023-03-30T07:38:35.378Z,-0.02
2023-03-30T07:41:08.481Z,0.16
2023-03-30T07:43:38.109Z,0.32
2023-03-30T07:46:06.465Z,0.52
2023-03-30T07:48:34.863Z,0.70
2023-03-30T07:51:04.868Z,0.92
2023-03-30T07:53:33.261Z,1.12
2023-03-30T07:56:01.976Z,1.04
2023-03-30T07:58:30.581Z,1.46
2023-03-30T08:01:03.446Z,1.16
2023-03-30T08:03:33.395Z,1.70
2023-03-30T08:06:17.051Z,2.04
2023-03-30T08:08:44.984Z,2.53
2023-03-30T08:11:15.953Z,2.83
2023-03-30T08:13:44.566Z,2.57
2023-03-30T08:16:13.966Z,3.01
2023-03-30T08:18:42.678Z,2.94
2023-03-30T08:21:11.497Z,2.88
2023-03-30T08:23:39.596Z,2.88
2023-03-30T08:26:07.957Z,2.96
2023-03-30T08:28:36.767Z,3.01
2023-03-30T08:31:06.614Z,3.04
2023-03-30T08:33:38.229Z,3.13
2023-03-30T08:36:06.764Z,3.25
2023-03-30T08:38:34.693Z,3.37
2023-03-30T08:41:03.311Z,3.13
2023-03-30T08:43:49.013Z,3.09
2023-03-30T08:46:19.723Z,3.38
2023-03-30T08:48:50.635Z,3.41
2023-03-30T08:51:24.912Z,3.20
2023-03-30T08:53:57.569Z,3.49
2023-03-30T08:56:32.087Z,3.41
2023-03-30T08:59:10.449Z,2.69
2023-03-30T09:01:47.514Z,3.67
2023-03-30T09:04:28.471Z,3.74
2023-03-30T09:07:03.593Z,3.75
2023-03-30T09:09:33.761Z,3.52
2023-03-30T09:12:08.993Z,4.01
2023-03-30T09:14:41.841Z,4.19
2023-03-30T09:17:17.350Z,4.21
2023-03-30T09:19:57.140Z,4.22
2023-03-30T09:22:33.509Z,4.12
2023-03-30T09:25:03.903Z,3.70
2023-03-30T09:27:43.552Z,3.53
2023-03-30T09:30:20.399Z,3.90
2023-03-30T09:32:59.724Z,3.50
2023-03-30T09:35:36.463Z,3.97
2023-03-30T09:38:05.863Z,4.06
2023-03-30T09:41:13.429Z,3.99
2023-03-30T09:43:44.458Z,4.06
2023-03-30T09:46:20.195Z,4.05
2023-03-30T09:48:52.019Z,3.89
2023-03-30T09:51:24.124Z,3.50
2023-03-30T09:53:55.468Z,3.97
2023-03-30T09:56:29.382Z,4.00
2023-03-30T09:58:57.399Z,3.59
2023-03-30T10:01:38.338Z,4.21
2023-03-30T10:04:09.763Z,4.43
2023-03-30T10:06:48.006Z,4.60
2023-03-30T10:09:16.707Z,4.53
2023-03-30T10:11:47.076Z,4.45
2023-03-30T10:14:29.017Z,4.49
2023-03-30T10:16:58.691Z,4.37
2023-03-30T10:19:26.762Z,4.37
2023-03-30T10:21:58.948Z,4.24
2023-03-30T10:24:31.657Z,4.33
2023-03-30T10:27:05.851Z,4.29
2023-03-30T10:29:34.016Z,4.25
2023-03-30T10:32:09.748Z,4.55
2023-03-30T10:34:40.526Z,4.56
2023-03-30T10:37:13.434Z,4.12
2023-03-30T10:39:45.385Z,4.77
2023-03-30T10:42:19.186Z,4.77
2023-03-30T10:44:51.408Z,4.81
2023-03-30T10:47:42.515Z,4.81
2023-03-30T10:50:19.842Z,5.02
2023-03-30T10:52:59.766Z,5.04
2023-03-30T10:55:35.678Z,5.18
2023-03-30T10:58:14.490Z,5.26
2023-03-30T11:00:58.432Z,5.21
2023-03-30T11:03:29.470Z,5.04
2023-03-30T11:06:03.513Z,4.65
2023-03-30T11:08:38.384Z,4.91
2023-03-30T11:11:08.248Z,4.74
2023-03-30T11:13:41.657Z,4.54
2023-03-30T11:16:16.219Z,4.41
2023-03-30T11:18:51.397Z,4.33
2023-03-30T11:21:22.786Z,3.81
2023-03-30T11:23:55.238Z,3.70
2023-03-30T11:26:29.957Z,3.71
2023-03-30T11:29:08.113Z,3.67
2023-03-30T11:31:50.248Z,3.72
2023-03-30T11:34:28.402Z,3.76
2023-03-30T11:37:05.269Z,3.83
2023-03-30T11:39:38.388Z,3.80
2023-03-30T11:42:15.841Z,3.67
2023-03-30T11:44:44.570Z,2.77
2023-03-30T11:47:47.441Z,3.50
2023-03-30T11:50:30.148Z,3.44
2023-03-30T11:53:12.785Z,3.42
2023-03-30T11:55:56.138Z,3.30
2023-03-30T11:58:33.382Z,3.28
2023-03-30T12:01:15.223Z,3.13
2023-03-30T12:03:45.325Z,3.06
2023-03-30T12:06:30.006Z,3.07
2023-03-30T12:09:28.968Z,3.05
2023-03-30T12:12:10.533Z,2.88
2023-03-30T12:14:55.065Z,2.94
2023-03-30T12:17:34.392Z,3.09
2023-03-30T12:20:11.356Z,2.80
2023-03-30T12:22:45.149Z,2.98
2023-03-30T12:25:27.709Z,2.93
2023-03-30T12:28:05.380Z,2.93
2023-03-30T12:30:44.947Z,2.79
2023-03-30T12:33:14.897Z,2.93
2023-03-30T12:35:58.776Z,2.93
2023-03-30T12:38:30.124Z,2.73
2023-03-30T12:41:14.301Z,2.78
2023-03-30T12:44:03.500Z,2.50
2023-03-30T12:46:38.167Z,2.78
2023-03-30T12:49:16.546Z,2.74
2023-03-30T12:52:04.196Z,2.50
2023-03-30T12:54:54.527Z,2.33
2023-03-30T12:57:37.567Z,2.66
2023-03-30T13:00:33.031Z,2.69
2023-03-30T13:03:23.517Z,2.73
2023-03-30T13:05:54.685Z,2.71
2023-03-30T13:08:31.607Z,2.71
2023-03-30T13:11:13.296Z,2.05
2023-03-30T13:13:51.359Z,2.63
2023-03-30T13:17:07.351Z,2.64
2023-03-30T13:20:15.441Z,2.39
2023-03-30T13:23:16.658Z,2.47
2023-03-30T13:25:49.862Z,2.41
2023-03-30T13:28:45.462Z,2.27
2023-03-30T13:31:25.745Z,1.64
2023-03-30T13:34:03.663Z,2.20
2023-03-30T13:36:36.830Z,1.34
2023-03-30T13:39:13.930Z,2.14
2023-03-30T13:41:53.913Z,0.55
2023-03-30T13:44:39.306Z,1.67
2023-03-30T13:47:22.911Z,2.04
2023-03-30T13:50:03.137Z,2.01
2023-03-30T13:52:38.266Z,1.29
2023-03-30T13:55:16.181Z,0.03
2023-03-30T13:57:45.298Z,1.47
2023-03-30T14:00:33.606Z,1.97
2023-03-30T14:03:16.714Z,1.92
2023-03-30T14:05:46.045Z,1.66
2023-03-30T14:08:14.173Z,1.43
2023-03-30T14:10:43.093Z,1.91
2023-03-30T14:13:14.733Z,1.31
2023-03-30T14:15:46.590Z,1.66
2023-03-30T14:18:24.427Z,1.68
2023-03-30T14:20:57.864Z,1.69
2023-03-30T14:23:33.760Z,1.67
2023-03-30T14:26:04.521Z,1.62
2023-03-30T14:28:38.012Z,1.60
2023-03-30T14:31:13.766Z,1.55
2023-03-30T14:33:42.294Z,1.50
2023-03-30T14:36:13.116Z,1.48
2023-03-30T14:38:43.581Z,1.31
2023-03-30T14:41:16.568Z,1.39
2023-03-30T14:43:51.508Z,0.92
2023-03-30T14:46:19.679Z,1.27
2023-03-30T14:48:50.670Z,1.22
2023-03-30T14:51:29.925Z,0.29
2023-03-30T14:54:00.550Z,1.18
2023-03-30T14:56:29.806Z,1.19
2023-03-30T14:58:58.612Z,1.17
2023-03-30T15:01:32.361Z,1.13
2023-03-30T15:04:03.365Z,1.09
2023-03-30T15:06:33.703Z,0.56
2023-03-30T15:09:03.266Z,0.19
2023-03-30T15:11:34.555Z,0.53
2023-03-30T15:14:06.110Z,0.89
2023-03-30T15:16:35.974Z,0.92
2023-03-30T15:19:07.804Z,0.54
2023-03-30T15:21:38.753Z,1.00
2023-03-30T15:24:08.884Z,0.92
2023-03-30T15:26:44.592Z,0.96
2023-03-30T15:29:13.848Z,0.99
2023-03-30T15:31:44.665Z,1.03
2023-03-30T15:34:16.935Z,0.95
2023-03-30T15:36:53.437Z,1.09
2023-03-30T15:39:25.877Z,1.10
2023-03-30T15:42:01.652Z,0.90
2023-03-30T15:44:30.067Z,1.04
2023-03-30T15:47:01.373Z,1.04
2023-03-30T15:49:40.839Z,0.75
2023-03-30T15:52:14.864Z,1.03
2023-03-30T15:54:47.619Z,0.83
2023-03-30T15:57:21.450Z,0.83
2023-03-30T15:59:52.194Z,0.99
2023-03-30T16:02:22.743Z,0.47
2023-03-30T16:04:51.670Z,0.93
2023-03-30T16:07:24.770Z,0.92
2023-03-30T16:09:53.457Z,0.87
2023-03-30T16:12:26.718Z,0.71
2023-03-30T16:14:55.431Z,0.80
2023-03-30T16:17:23.500Z,0.75
2023-03-30T16:19:51.323Z,0.61
2023-03-30T16:22:20.784Z,0.40
2023-03-30T16:24:48.644Z,0.55
2023-03-30T16:27:16.706Z,-0.31
2023-03-30T16:29:44.552Z,0.52
2023-03-30T16:32:12.368Z,0.50
2023-03-30T16:34:43.080Z,0.45
2023-03-30T16:37:11.497Z,0.46
2023-03-30T16:39:40.679Z,0.44
2023-03-30T16:42:08.620Z,0.45
2023-03-30T16:44:36.858Z,0.31
2023-03-30T16:47:05.022Z,0.43
2023-03-30T16:49:33.031Z,0.41
2023-03-30T16:52:02.071Z,0.30
2023-03-30T16:54:32.431Z,0.25
2023-03-30T16:57:02.597Z,0.38
2023-03-30T16:59:32.416Z,-0.39
2023-03-30T17:02:00.731Z,0.39
2023-03-30T17:04:28.652Z,0.33
2023-03-30T17:06:56.704Z,0.35
2023-03-30T17:09:24.657Z,0.32
2023-03-30T17:11:52.813Z,0.15
2023-03-30T17:14:23.338Z,0.25
2023-03-30T17:16:51.516Z,0.31
2023-03-30T17:19:19.461Z,0.30
2023-03-30T17:21:47.539Z,0.19
2023-03-30T17:24:16.996Z,0.26
2023-03-30T17:26:46.362Z,0.18
2023-03-30T17:29:14.239Z,0.25
2023-03-30T17:31:45.834Z,0.15
2023-03-30T17:34:15.007Z,0.26
2023-03-30T17:36:43.438Z,-0.23
2023-03-30T17:39:13.919Z,0.25
2023-03-30T17:41:42.418Z,0.26
2023-03-30T17:44:10.323Z,0.15
2023-03-30T17:46:38.224Z,0.23
2023-03-30T17:49:17.123Z,-0.19
2023-03-30T17:51:44.975Z,0.23
2023-03-30T17:54:12.913Z,0.24
2023-03-30T17:56:41.212Z,0.23
2023-03-30T17:59:11.304Z,0.22
2023-03-30T18:01:39.333Z,0.23
2023-03-30T18:04:16.440Z,0.23
2023-03-30T18:06:44.456Z,0.22
2023-03-30T18:09:16.213Z,0.22
2023-03-30T18:11:44.194Z,0.23
2023-03-30T18:14:12.429Z,0.22
2023-03-30T18:16:43.800Z,0.03
2023-03-30T18:19:13.674Z,0.22
2023-03-30T18:21:43.137Z,0.20
2023-03-30T18:24:10.998Z,0.24
2023-03-30T18:26:41.011Z,-0.11
2023-03-30T18:29:20.314Z,-0.39
2023-03-30T18:31:49.509Z,0.27
2023-03-30T18:34:19.672Z,0.28
2023-03-30T18:36:47.608Z,0.26
2023-03-30T18:39:19.816Z,0.24
2023-03-30T18:41:47.760Z,-0.02
2023-03-30T18:44:15.681Z,0.21
2023-03-30T18:46:44.571Z,-0.03
2023-03-30T18:49:15.143Z,0.22
2023-03-30T18:51:44.525Z,0.22
2023-03-30T18:54:12.471Z,0.20
2023-03-30T18:56:40.485Z,0.22
2023-03-30T18:59:10.664Z,0.24
2023-03-30T19:01:41.441Z,0.25
2023-03-30T19:04:09.477Z,0.26
2023-03-30T19:06:37.705Z,0.02
2023-03-30T19:09:07.090Z,0.27
2023-03-30T19:11:35.072Z,0.26
2023-03-30T19:14:04.624Z,0.25
2023-03-30T19:16:32.525Z,-0.58
2023-03-30T19:19:00.676Z,0.26
2023-03-30T19:21:28.884Z,-0.64
2023-03-30T19:23:56.754Z,-0.01
2023-03-30T19:26:28.335Z,0.28
2023-03-30T19:28:56.209Z,0.25
2023-03-30T19:31:24.232Z,0.25
2023-03-30T19:33:52.387Z,0.24
2023-03-30T19:36:24.696Z,0.25
2023-03-30T19:38:53.042Z,0.24
2023-03-30T19:41:21.204Z,0.24
2023-03-30T19:43:52.925Z,0.26
2023-03-30T19:46:22.061Z,0.28
2023-03-30T19:48:50.110Z,0.28
2023-03-30T19:51:19.265Z,-0.56
2023-03-30T19:53:48.974Z,0.25
2023-03-30T19:56:16.906Z,-0.21
2023-03-30T19:58:44.955Z,0.26
2023-03-30T20:01:14.583Z,0.25
2023-03-30T20:03:42.615Z,0.07
2023-03-30T20:06:12.746Z,0.09
2023-03-30T20:08:43.399Z,0.09
2023-03-30T20:11:12.534Z,0.22
2023-03-30T20:13:45.713Z,0.06
2023-03-30T20:16:22.424Z,-0.27
2023-03-30T20:18:52.172Z,0.05
2023-03-30T20:21:21.788Z,0.03
2023-03-30T20:23:50.229Z,-0.04
2023-03-30T20:26:19.581Z,0.21
2023-03-30T20:28:48.084Z,0.21
2023-03-30T20:31:17.808Z,0.20
2023-03-30T20:33:46.103Z,0.21
2023-03-30T20:36:14.393Z,0.20
2023-03-30T20:38:45.907Z,0.17
2023-03-30T20:41:14.386Z,-0.85
2023-03-30T20:43:56.496Z,-0.61
2023-03-30T20:46:35.161Z,0.16
2023-03-30T20:49:03.932Z,0.13
2023-03-30T20:51:33.543Z,0.15
2023-03-30T20:54:01.719Z,0.11
2023-03-30T20:56:29.684Z,0.11
2023-03-30T20:58:59.963Z,0.13
2023-03-30T21:01:30.485Z,0.13
2023-03-30T21:04:00.177Z,0.13
2023-03-30T21:06:30.114Z,0.12
2023-03-30T21:09:00.431Z,-1.59
2023-03-30T21:11:31.441Z,0.11
2023-03-30T21:13:59.519Z,0.11
2023-03-30T21:16:27.596Z,0.09
2023-03-30T21:18:59.713Z,0.11
2023-03-30T21:21:27.915Z,0.01
2023-03-30T21:23:57.505Z,-0.72
2023-03-30T21:26:26.590Z,-0.07
2023-03-30T21:28:54.901Z,0.08
2023-03-30T21:31:23.037Z,-0.49
2023-03-30T21:33:51.180Z,0.07
2023-03-30T21:36:20.712Z,0.08
2023-03-30T21:38:48.778Z,0.05
2023-03-30T21:41:18.613Z,0.05
2023-03-30T21:43:49.456Z,-0.19
2023-03-30T21:46:19.454Z,0.07
2023-03-30T21:48:50.492Z,0.07
2023-03-30T21:51:23.045Z,0.07
2023-03-30T21:53:52.354Z,-0.05
2023-03-30T21:56:22.614Z,0.06
2023-03-30T21:58:50.980Z,-0.51
2023-03-30T22:01:20.770Z,-0.40
2023-03-30T22:03:48.733Z,0.04
2023-03-30T22:06:22.336Z,-0.17
2023-03-30T22:08:52.082Z,0.05
2023-03-30T22:11:22.151Z,0.06
2023-03-30T22:13:57.331Z,0.06
2023-03-30T22:16:31.622Z,-0.09
2023-03-30T22:18:59.873Z,0.04
2023-03-30T22:21:34.497Z,-0.10
2023-03-30T22:24:06.048Z,0.03
2023-03-30T22:26:35.682Z,0.02
2023-03-30T22:29:03.639Z,0.02
2023-03-30T22:31:31.557Z,-0.21
2023-03-30T22:33:59.695Z,0.01
2023-03-30T22:36:30.089Z,-0.12
2023-03-30T22:38:59.841Z,-0.03
2023-03-30T22:41:29.608Z,-0.03
2023-03-30T22:43:59.338Z,-0.11
2023-03-30T22:46:28.162Z,-0.39
2023-03-30T22:48:56.812Z,-0.02
2023-03-30T22:51:26.225Z,-0.57
2023-03-30T22:53:56.317Z,-0.10
2023-03-30T22:56:25.933Z,-0.03
2023-03-30T22:58:55.455Z,-0.27
2023-03-30T23:01:23.787Z,-0.06
2023-03-30T23:03:53.464Z,-1.10
2023-03-30T23:06:21.789Z,-0.04
2023-03-30T23:08:49.628Z,-0.19
2023-03-30T23:11:21.907Z,-0.07
2023-03-30T23:13:50.053Z,-0.22
2023-03-30T23:16:19.399Z,-0.09
2023-03-30T23:18:47.519Z,-0.08
2023-03-30T23:21:15.399Z,-0.80
2023-03-30T23:23:44.005Z,-1.20
2023-03-30T23:26:13.252Z,-0.13
2023-03-30T23:28:43.575Z,-0.13
2023-03-30T23:31:13.247Z,-0.16
2023-03-30T23:33:43.236Z,-0.86
2023-03-30T23:36:13.645Z,-0.17
2023-03-30T23:38:41.955Z,-0.18
2023-03-30T23:41:13.321Z,-0.72
2023-03-30T23:43:41.419Z,-0.15
2023-03-30T23:46:10.505Z,-0.31
2023-03-30T23:48:40.521Z,-0.16
2023-03-30T23:51:10.232Z,-0.15
2023-03-30T23:53:40.375Z,-0.20
2023-03-30T23:56:13.112Z,-0.17
2023-03-30T23:58:46.685Z,-0.16
